createdAt,value
2017-12-04T00:00:13.314Z,76.44
2017-12-04T00:00:53.709Z,76.92
2017-12-04T00:01:34.108Z,77.11
2017-12-04T00:02:14.580Z,77.49
2017-12-04T00:02:55.097Z,76.82
2017-12-04T00:03:35.653Z,76.82
2017-12-04T00:04:16.069Z,76.44
2017-12-04T00:04:56.459Z,77.01
2017-12-04T00:05:36.908Z,76.35
2017-12-04T00:06:17.338Z,76.54
2017-12-04T00:06:57.775Z,76.44
2017-12-04T00:07:38.070Z,76.92
2017-12-04T00:08:18.520Z,77.11
2017-12-04T00:08:58.980Z,76.92
2017-12-04T00:09:39.453Z,77.11
2017-12-04T00:10:19.783Z,77.2
2017-12-04T00:11:00.168Z,77.2
2017-12-04T00:11:40.521Z,76.92
2017-12-04T00:12:20.924Z,77.49
2017-12-04T00:13:01.296Z,77.49
2017-12-04T00:13:41.705Z,77.2
2017-12-04T00:14:22.117Z,77.2
2017-12-04T00:15:02.600Z,76.82
2017-12-04T00:15:42.973Z,77.49
2017-12-04T00:16:23.390Z,77.3
2017-12-04T00:17:04.450Z,77.77
2017-12-04T00:17:44.759Z,77.97
2017-12-04T00:18:25.233Z,77.49
2017-12-04T00:19:05.570Z,77.97
2017-12-04T00:19:46.064Z,77.77
2017-12-04T00:20:26.436Z,77.87
2017-12-04T00:21:08.143Z,77.3
2017-12-04T00:21:48.493Z,77.3
2017-12-04T00:22:28.911Z,77.01
2017-12-04T00:27:44.747Z,76.44
2017-12-04T00:28:27.274Z,76.54
2017-12-04T00:29:07.966Z,76.25
2017-12-04T00:29:48.464Z,76.44
2017-12-04T00:30:29.023Z,76.25
2017-12-04T00:35:58.822Z,76.25
2017-12-04T00:36:51.599Z,76.16
2017-12-04T00:37:31.425Z,75.96
2017-12-04T00:38:11.896Z,76.35
2017-12-04T00:38:52.262Z,76.25
2017-12-04T00:39:32.682Z,76.44
2017-12-04T00:40:13.158Z,76.54
2017-12-04T00:40:53.683Z,76.82
2017-12-04T00:41:34.060Z,76.35
2017-12-04T00:42:14.466Z,76.44
2017-12-04T00:42:54.928Z,76.54
2017-12-04T00:43:35.423Z,76.44
2017-12-04T00:44:15.830Z,76.25
2017-12-04T00:44:56.247Z,76.16
2017-12-04T00:45:36.661Z,76.44
2017-12-04T00:46:17.506Z,76.35
2017-12-04T00:46:57.760Z,75.96
2017-12-04T00:47:38.277Z,76.06
2017-12-04T00:48:18.743Z,76.44
2017-12-04T00:48:59.055Z,76.25
2017-12-04T00:49:39.469Z,76.35
2017-12-04T00:50:20.053Z,76.82
2017-12-04T00:51:00.564Z,76.73
2017-12-04T00:51:41.032Z,76.44
2017-12-04T00:52:21.526Z,76.82
2017-12-04T00:53:01.963Z,76.44
2017-12-04T00:53:42.426Z,77.01
2017-12-04T00:54:22.808Z,76.54
2017-12-04T00:55:03.214Z,76.92
2017-12-04T00:55:43.650Z,77.2
2017-12-04T00:56:24.054Z,76.73
2017-12-04T00:57:04.440Z,76.82
2017-12-04T00:57:44.911Z,76.92
2017-12-04T00:58:25.273Z,77.39
2017-12-04T00:59:05.676Z,77.3
2017-12-04T00:59:46.067Z,77.58
2017-12-04T01:00:26.424Z,77.01
2017-12-04T01:01:06.832Z,76.82
2017-12-04T01:01:47.232Z,76.73
2017-12-04T01:02:27.649Z,76.44
2017-12-04T01:03:08.766Z,76.35
2017-12-04T01:03:49.360Z,77.11
2017-12-04T01:04:29.717Z,76.54
2017-12-04T01:05:10.331Z,77.11
2017-12-04T01:05:50.952Z,77.3
2017-12-04T01:06:31.362Z,77.49
2017-12-04T01:07:11.809Z,77.3
2017-12-04T01:07:52.253Z,77.01
2017-12-04T01:08:32.710Z,77.39
2017-12-04T01:10:27.935Z,76.92
2017-12-04T01:11:19.486Z,77.2
2017-12-04T01:12:12.669Z,76.63
2017-12-04T01:12:53.385Z,76.92
2017-12-04T01:13:34.045Z,77.2
2017-12-04T01:14:14.510Z,76.82
2017-12-04T01:14:54.860Z,76.92
2017-12-04T01:15:35.473Z,77.49
2017-12-04T01:16:16.171Z,77.87
2017-12-04T01:16:56.619Z,77.97
2017-12-04T01:17:37.255Z,78.72
2017-12-04T01:18:17.450Z,78.44
2017-12-04T01:18:57.918Z,78.63
2017-12-04T01:19:38.421Z,78.16
2017-12-04T01:20:18.959Z,77.58
2017-12-04T01:20:59.367Z,77.97
2017-12-04T01:21:40.010Z,77.58
2017-12-04T01:22:20.400Z,77.68
2017-12-04T01:23:01.873Z,77.87
2017-12-04T01:23:42.353Z,77.97
2017-12-04T01:24:22.623Z,77.97
2017-12-04T01:25:03.143Z,77.68
2017-12-04T01:25:43.456Z,77.77
2017-12-04T01:26:24.280Z,77.97
2017-12-04T01:27:04.540Z,77.87
2017-12-04T01:27:45.143Z,78.16
2017-12-04T01:28:25.452Z,78.25
2017-12-04T01:29:05.978Z,77.87
2017-12-04T01:29:47.528Z,78.06
2017-12-04T01:30:27.944Z,77.87
2017-12-04T01:31:08.503Z,77.87
2017-12-04T01:31:49.090Z,77.97
2017-12-04T01:32:29.913Z,77.77
2017-12-04T01:33:10.442Z,77.97
2017-12-04T01:33:52.105Z,77.97
2017-12-04T01:34:32.036Z,77.77
2017-12-04T01:35:12.566Z,78.44
2017-12-04T01:35:53.189Z,77.97
2017-12-04T01:36:33.690Z,78.16
2017-12-04T01:37:14.175Z,78.16
2017-12-04T01:37:54.503Z,78.06
2017-12-04T01:38:35.741Z,78.06
2017-12-04T01:39:17.108Z,78.06
2017-12-04T01:39:57.681Z,77.97
2017-12-04T01:40:39.265Z,77.77
2017-12-04T01:41:19.540Z,77.87
2017-12-04T01:41:59.953Z,77.58
2017-12-04T01:42:40.398Z,77.3
2017-12-04T01:43:21.037Z,77.97
2017-12-04T01:44:02.328Z,77.77
2017-12-04T01:44:42.647Z,78.25
2017-12-04T01:45:23.287Z,77.87
2017-12-04T01:46:03.944Z,77.49
2017-12-04T01:46:44.585Z,77.49
2017-12-04T01:47:25.171Z,77.87
2017-12-04T01:48:05.629Z,77.49
2017-12-04T01:48:46.195Z,77.49
2017-12-04T01:49:27.224Z,77.39
2017-12-04T01:50:07.697Z,77.49
2017-12-04T01:50:48.254Z,77.87
2017-12-04T01:51:28.798Z,77.3
2017-12-04T01:52:09.239Z,77.3
2017-12-04T01:52:49.644Z,77.68
2017-12-04T01:53:30.425Z,77.39
2017-12-04T01:54:11.187Z,77.49
2017-12-04T01:54:51.742Z,77.2
2017-12-04T01:55:32.257Z,77.58
2017-12-04T01:56:14.041Z,77.3
2017-12-04T01:56:54.301Z,77.58
2017-12-04T01:57:34.887Z,77.11
2017-12-04T01:58:15.251Z,78.06
2017-12-04T01:58:55.671Z,77.77
2017-12-04T01:59:36.116Z,77.87
2017-12-04T02:00:16.592Z,77.87
2017-12-04T02:01:01.177Z,77.87
2017-12-04T02:01:41.465Z,76.92
2017-12-04T02:02:21.905Z,77.58
2017-12-04T02:03:04.938Z,77.3
2017-12-04T02:03:47.063Z,77.3
2017-12-04T02:04:35.152Z,77.39
2017-12-04T02:05:18.906Z,77.87
2017-12-04T02:05:59.307Z,77.58
2017-12-04T02:06:39.726Z,78.25
2017-12-04T02:07:20.183Z,77.77
2017-12-04T02:12:57.935Z,77.77
2017-12-04T02:14:49.781Z,77.97
2017-12-04T02:15:30.197Z,77.77
2017-12-04T02:16:10.902Z,77.49
2017-12-04T02:16:51.329Z,77.87
2017-12-04T02:17:31.720Z,77.68
2017-12-04T02:18:12.109Z,77.77
2017-12-04T02:18:52.481Z,77.68
2017-12-04T02:19:32.902Z,77.58
2017-12-04T02:20:13.309Z,77.34
2017-12-04T02:20:53.630Z,77.34
2017-12-04T02:21:34.027Z,77.3
2017-12-04T02:22:14.781Z,77.49
2017-12-04T02:22:54.937Z,77.97
2017-12-04T02:23:35.368Z,77.87
2017-12-04T02:24:15.824Z,78
2017-12-04T02:24:56.158Z,77.72
2017-12-04T02:25:36.996Z,77.24
2017-12-04T02:26:17.161Z,77.53
2017-12-04T02:26:58.286Z,76.86
2017-12-04T02:27:38.980Z,77.15
2017-12-04T02:28:19.293Z,77.05
2017-12-04T02:28:59.879Z,76.86
2017-12-04T02:29:40.456Z,76.48
2017-12-04T02:30:20.670Z,76.1
2017-12-04T02:31:01.170Z,76.2
2017-12-04T02:31:41.542Z,76.29
2017-12-04T02:32:22.473Z,76.29
2017-12-04T02:33:02.511Z,76.29
2017-12-04T02:33:42.976Z,76.01
2017-12-04T02:34:23.760Z,76.2
2017-12-04T02:35:04.219Z,76.01
2017-12-04T02:35:44.770Z,76.48
2017-12-04T02:36:25.515Z,76.39
2017-12-04T02:37:05.789Z,76.96
2017-12-04T02:37:46.745Z,76.67
2017-12-04T02:38:28.630Z,77.05
2017-12-04T02:39:08.991Z,77.05
2017-12-04T02:39:49.815Z,76.57
2017-12-04T02:40:30.558Z,76.01
2017-12-04T02:41:11.335Z,76.39
2017-12-04T02:41:51.964Z,76.48
2017-12-04T02:42:32.862Z,75.91
2017-12-04T02:43:13.356Z,76.48
2017-12-04T02:43:54.465Z,76.48
2017-12-04T02:44:34.881Z,75.91
2017-12-04T02:45:16.299Z,75.72
2017-12-04T02:45:58.787Z,76.2
2017-12-04T02:46:40.452Z,76.01
2017-12-04T02:47:20.982Z,76.1
2017-12-04T02:48:01.726Z,76.76
2017-12-04T02:48:42.531Z,76.57
2017-12-04T02:49:24.212Z,76.2
2017-12-04T02:50:04.823Z,76.67
2017-12-04T02:50:45.422Z,77.15
2017-12-04T02:51:25.767Z,76.39
2017-12-04T02:52:06.407Z,76.39
2017-12-04T02:52:46.721Z,77.05
2017-12-04T02:53:27.946Z,76.86
2017-12-04T02:54:08.971Z,77.34
2017-12-04T02:54:49.379Z,77.24
2017-12-04T02:55:30.023Z,76.96
2017-12-04T02:56:10.736Z,77.53
2017-12-04T02:56:51.295Z,76.96
2017-12-04T02:57:31.586Z,76.96
2017-12-04T02:58:12.934Z,77.34
2017-12-04T02:58:53.781Z,76.86
2017-12-04T02:59:34.265Z,76.76
2017-12-04T03:00:14.769Z,76.57
2017-12-04T03:00:55.945Z,76.96
2017-12-04T03:01:36.291Z,77.05
2017-12-04T03:02:16.879Z,76.67
2017-12-04T03:02:57.165Z,76.48
2017-12-04T03:03:37.586Z,77.05
2017-12-04T03:04:18.348Z,77.05
2017-12-04T03:04:58.729Z,76.86
2017-12-04T03:05:39.267Z,76.76
2017-12-04T03:06:19.743Z,77.05
2017-12-04T03:07:00.969Z,77.05
2017-12-04T03:07:41.768Z,77.15
2017-12-04T03:08:21.914Z,77.34
2017-12-04T03:09:02.311Z,76.86
2017-12-04T03:09:42.714Z,77.34
2017-12-04T03:10:23.496Z,77.53
2017-12-04T03:11:03.971Z,78
2017-12-04T03:11:44.744Z,77.72
2017-12-04T03:12:25.135Z,78
2017-12-04T03:13:05.450Z,78
2017-12-04T03:13:45.899Z,77.91
2017-12-04T03:14:26.424Z,77.81
2017-12-04T03:15:06.776Z,77.91
2017-12-04T03:15:47.385Z,77.72
2017-12-04T03:16:27.994Z,78
2017-12-04T03:17:08.550Z,78
2017-12-04T03:17:49.607Z,78.1
2017-12-04T03:18:29.887Z,77.72
2017-12-04T03:19:11.735Z,78.29
2017-12-04T03:19:52.224Z,78.19
2017-12-04T03:20:32.596Z,77.91
2017-12-04T03:21:12.962Z,78.1
2017-12-04T03:21:53.386Z,78.48
2017-12-04T03:22:33.735Z,78.29
2017-12-04T03:23:17.787Z,78.67
2017-12-04T03:23:57.780Z,78.67
2017-12-04T03:24:38.454Z,78.1
2017-12-04T03:25:19.661Z,78.19
2017-12-04T03:25:59.933Z,78
2017-12-04T03:26:40.608Z,78.1
2017-12-04T03:27:21.010Z,77.72
2017-12-04T03:28:01.364Z,78
2017-12-04T03:28:41.782Z,77.53
2017-12-04T03:29:22.536Z,77.24
2017-12-04T03:30:02.780Z,77.53
2017-12-04T03:30:43.492Z,77.34
2017-12-04T03:31:23.979Z,77.34
2017-12-04T03:32:04.297Z,77.53
2017-12-04T03:32:44.714Z,77.62
2017-12-04T03:33:25.069Z,77.53
2017-12-04T03:34:05.510Z,77.53
2017-12-04T03:34:45.960Z,77.72
2017-12-04T03:35:26.341Z,77.91
2017-12-04T03:36:06.878Z,77.43
2017-12-04T03:36:47.305Z,77.81
2017-12-04T03:37:27.614Z,77.53
2017-12-04T03:38:08.070Z,77.81
2017-12-04T03:38:48.453Z,77.91
2017-12-04T03:39:28.918Z,78.16
2017-12-04T03:40:09.309Z,78.38
2017-12-04T03:40:49.744Z,78.34
2017-12-04T03:41:30.059Z,78.57
2017-12-04T03:42:10.600Z,78.72
2017-12-04T03:42:51.803Z,78.57
2017-12-04T03:43:32.217Z,78.82
2017-12-04T03:44:12.589Z,78.44
2017-12-04T03:44:53.039Z,78.44
2017-12-04T03:45:33.470Z,78.25
2017-12-04T03:46:13.849Z,78.44
2017-12-04T03:46:54.196Z,79.11
2017-12-04T03:47:34.670Z,78.44
2017-12-04T03:48:14.995Z,78.63
2017-12-04T03:48:55.508Z,78.06
2017-12-04T03:49:35.889Z,78.57
2017-12-04T03:50:16.316Z,78.57
2017-12-04T03:50:56.667Z,78.57
2017-12-04T03:51:37.128Z,78.57
2017-12-04T03:52:17.433Z,78.53
2017-12-04T03:52:57.890Z,79.14
2017-12-04T03:53:38.303Z,78.77
2017-12-04T03:54:18.802Z,78.48
2017-12-04T03:54:59.139Z,78.19
2017-12-04T03:55:39.596Z,78.67
2017-12-04T03:56:20.227Z,78.29
2017-12-04T03:57:00.678Z,78.48
2017-12-04T03:57:41.135Z,78.29
2017-12-04T03:58:21.489Z,78.48
2017-12-04T03:59:01.844Z,78.57
2017-12-04T03:59:42.351Z,78.1
2017-12-04T04:00:22.728Z,78.1
2017-12-04T04:01:03.042Z,78
2017-12-04T04:01:43.432Z,78
2017-12-04T04:41:46.358Z,82.34
2017-12-04T04:42:26.496Z,82.24
2017-12-04T04:43:06.908Z,82.24
2017-12-04T04:43:47.273Z,82.81
2017-12-04T04:44:27.673Z,83.1
2017-12-04T04:45:08.069Z,83.06
2017-12-04T04:45:48.485Z,83.72
2017-12-04T04:46:28.908Z,83.06
2017-12-04T04:47:09.426Z,83.44
2017-12-04T04:47:49.895Z,83.72
2017-12-04T04:48:30.096Z,84.77
2017-12-04T04:49:10.495Z,84.58
2017-12-04T04:49:50.868Z,83.53
2017-12-04T04:50:31.308Z,83.72
2017-12-04T04:51:11.714Z,83.86
2017-12-04T04:51:52.156Z,82.96
2017-12-04T04:52:32.516Z,83.1
2017-12-04T04:53:12.913Z,83.19
2017-12-04T04:53:53.359Z,82.34
2017-12-04T04:54:33.741Z,82.43
2017-12-04T04:59:27.438Z,82.05
2017-12-04T05:00:08.741Z,81.48
2017-12-04T05:00:49.167Z,82.05
2017-12-04T05:01:29.562Z,81.96
2017-12-04T05:02:09.950Z,82.34
2017-12-04T05:02:50.390Z,82.05
2017-12-04T05:03:30.784Z,82.62
2017-12-04T05:04:11.189Z,82.15
2017-12-04T05:04:51.575Z,81.96
2017-12-04T05:05:31.986Z,81.86
2017-12-04T05:06:12.397Z,82.53
2017-12-04T05:06:52.832Z,81.96
2017-12-04T05:07:33.216Z,81.96
2017-12-04T05:09:47.103Z,81.38
2017-12-04T05:10:33.680Z,81.2
2017-12-04T05:11:14.070Z,80.76
2017-12-04T05:11:54.491Z,81.05
2017-12-04T05:12:34.883Z,80.66
2017-12-04T05:13:15.311Z,80.47
2017-12-04T05:13:55.789Z,80.66
2017-12-04T05:14:36.216Z,80.19
2017-12-04T05:15:16.624Z,80.19
2017-12-04T05:15:57.023Z,80.29
2017-12-04T05:16:37.442Z,80.1
2017-12-04T05:17:17.842Z,80.05
2017-12-04T05:17:58.227Z,80.15
2017-12-04T05:18:38.635Z,80.76
2017-12-04T05:19:19.019Z,80.86
2017-12-04T05:19:59.403Z,80.95
2017-12-04T05:20:39.796Z,80.19
2017-12-04T05:21:20.215Z,80.38
2017-12-04T05:22:00.666Z,80.66
2017-12-04T05:22:41.024Z,80.57
2017-12-04T05:23:21.466Z,80.76
2017-12-04T05:24:01.848Z,80.1
2017-12-04T05:24:42.291Z,80.29
2017-12-04T05:25:22.667Z,80.1
2017-12-04T05:26:03.048Z,80.19
2017-12-04T05:26:43.460Z,80.1
2017-12-04T05:28:41.282Z,80.66
2017-12-04T05:29:22.078Z,80.47
2017-12-04T05:30:02.437Z,80.29
2017-12-04T05:30:42.851Z,80.66
2017-12-04T05:31:23.234Z,80.38
2017-12-04T05:33:44.781Z,80.19
2017-12-04T05:34:36.617Z,80.29
2017-12-04T05:35:28.643Z,80.1
2017-12-04T05:36:20.379Z,79.91
2017-12-04T05:37:13.030Z,80
2017-12-04T05:38:04.511Z,80.29
2017-12-04T05:39:55.328Z,80.1
2017-12-04T05:40:35.857Z,80.29
2017-12-04T05:41:16.227Z,80.29
2017-12-04T05:41:56.615Z,80.47
2017-12-04T05:42:37.312Z,80.47
2017-12-04T05:43:17.709Z,80.47
2017-12-04T05:43:58.091Z,81.14
2017-12-04T05:46:12.708Z,80
2017-12-04T05:46:53.539Z,80.19
2017-12-04T05:47:33.924Z,80.66
2017-12-04T05:48:14.349Z,80.47
2017-12-04T05:48:54.751Z,80.1
2017-12-04T05:49:35.107Z,80.57
2017-12-04T05:50:15.512Z,79.33
2017-12-04T05:50:55.860Z,80.29
2017-12-04T05:51:36.285Z,80.66
2017-12-04T05:52:16.728Z,80.47
2017-12-04T05:52:57.181Z,80.66
2017-12-04T05:53:37.559Z,80.47
2017-12-04T05:54:17.958Z,80.86
2017-12-04T05:54:58.376Z,80.71
2017-12-04T05:55:38.804Z,79.85
2017-12-04T05:56:19.251Z,80.04
2017-12-04T05:56:59.597Z,80.13
2017-12-04T05:57:40.003Z,80.04
2017-12-04T05:58:20.395Z,80.13
2017-12-04T06:00:19.782Z,80.04
2017-12-04T06:00:59.208Z,80.23
2017-12-04T06:01:39.606Z,79.85
2017-12-04T06:02:20.082Z,80.13
2017-12-04T06:03:00.485Z,80.52
2017-12-04T06:03:41.135Z,80.33
2017-12-04T06:04:21.573Z,79.85
2017-12-04T06:05:01.945Z,80.04
2017-12-04T06:05:42.377Z,79.43
2017-12-04T06:07:55.039Z,80.13
2017-12-04T06:08:36.404Z,79.85
2017-12-04T06:09:16.847Z,79.47
2017-12-04T06:09:57.272Z,80.33
2017-12-04T06:10:37.676Z,80.61
2017-12-04T06:11:18.063Z,80.8
2017-12-04T06:11:58.457Z,80.71
2017-12-04T06:19:24.877Z,81.05
2017-12-04T06:20:05.257Z,81.85
2017-12-04T06:20:45.682Z,81.56
2017-12-04T06:21:26.061Z,80.8
2017-12-04T06:22:06.499Z,81.76
2017-12-04T06:22:46.872Z,80.99
2017-12-04T06:23:27.325Z,81.05
2017-12-04T06:24:07.749Z,80.99
2017-12-04T06:24:48.110Z,80.76
2017-12-04T06:25:28.528Z,80.95
2017-12-04T06:26:09.012Z,80.57
2017-12-04T06:26:49.371Z,81.09
2017-12-04T06:27:29.817Z,80.57
2017-12-04T06:28:10.186Z,81.14
2017-12-04T06:28:50.691Z,80.95
2017-12-04T06:29:31.166Z,80.76
2017-12-04T06:30:11.559Z,81.43
2017-12-04T06:30:51.934Z,80.76
2017-12-04T06:31:32.477Z,80.76
2017-12-04T06:32:12.948Z,80.19
2017-12-04T06:32:53.341Z,81.14
2017-12-04T06:33:33.746Z,81.24
2017-12-04T06:34:14.182Z,82
2017-12-04T06:34:54.597Z,81.52
2017-12-04T06:35:35.106Z,81.24
2017-12-04T06:36:15.662Z,81.43
2017-12-04T06:36:56.089Z,81.24
2017-12-04T06:37:36.500Z,81.52
2017-12-04T06:38:16.881Z,80.76
2017-12-04T06:38:57.462Z,81.14
2017-12-04T06:39:37.800Z,81.43
2017-12-04T06:40:18.226Z,82.09
2017-12-04T06:40:58.638Z,80.95
2017-12-04T06:41:39.057Z,80.76
2017-12-04T06:43:52.854Z,82.67
2017-12-04T06:44:33.859Z,82.19
2017-12-04T06:45:14.192Z,82.19
2017-12-04T06:45:54.617Z,82.86
2017-12-04T06:46:35.066Z,83.04
2017-12-04T06:47:15.513Z,82.95
2017-12-04T06:47:55.935Z,82.28
2017-12-04T06:48:36.304Z,81.81
2017-12-04T06:49:16.708Z,82.48
2017-12-04T06:49:57.105Z,81.81
2017-12-04T06:50:37.507Z,82.19
2017-12-04T06:51:17.893Z,82.28
2017-12-04T06:51:58.340Z,82.57
2017-12-04T06:52:38.706Z,82.86
2017-12-04T06:53:19.118Z,83.04
2017-12-04T06:53:59.550Z,83.04
2017-12-04T06:54:39.924Z,83.04
2017-12-04T06:55:20.556Z,82.57
2017-12-04T06:56:00.789Z,82.76
2017-12-04T06:56:41.149Z,82.95
2017-12-04T06:57:21.511Z,82.76
2017-12-04T06:58:01.949Z,82.95
2017-12-04T06:58:42.339Z,82.86
2017-12-04T06:59:22.820Z,83
2017-12-04T07:00:03.279Z,82.81
2017-12-04T07:00:43.640Z,83.95
2017-12-04T07:01:24.033Z,83.95
2017-12-04T07:02:04.488Z,83.76
2017-12-04T07:02:45.149Z,83.76
2017-12-04T07:05:09.904Z,83.71
2017-12-04T07:07:35.852Z,83.04
2017-12-04T07:08:16.048Z,82.57
2017-12-04T07:08:57.183Z,82.38
2017-12-04T07:09:38.516Z,82.48
2017-12-04T07:10:18.287Z,83.14
2017-12-04T07:10:58.790Z,82.86
2017-12-04T07:11:39.649Z,83.52
2017-12-04T07:12:19.838Z,83.04
2017-12-04T07:13:00.384Z,83.52
2017-12-04T07:13:40.779Z,82.76
2017-12-04T07:17:02.902Z,82.28
2017-12-04T07:17:44.611Z,82.48
2017-12-04T07:18:26.917Z,82
2017-12-04T07:19:07.396Z,82.09
2017-12-04T07:19:49.320Z,82
2017-12-04T07:20:33.841Z,82.76
2017-12-04T07:21:14.579Z,82
2017-12-04T07:23:41.418Z,82.57
2017-12-04T07:24:37.293Z,82.38
2017-12-04T07:25:34.001Z,82.38
2017-12-04T07:26:25.974Z,82.38
2017-12-04T07:27:23.885Z,82.38
2017-12-04T07:28:15.872Z,83.04
2017-12-04T07:28:57.324Z,83.04
2017-12-04T07:30:57.742Z,82.38
2017-12-04T07:31:37.990Z,82.19
2017-12-04T07:32:18.409Z,82.38
2017-12-04T07:32:58.840Z,81.71
2017-12-04T07:33:39.751Z,82.19
2017-12-04T07:34:19.941Z,81.81
2017-12-04T07:35:01.268Z,81.71
2017-12-04T07:35:41.071Z,82.09
2017-12-04T07:36:21.416Z,81.9
2017-12-04T07:37:01.877Z,82.48
2017-12-04T07:37:43.140Z,82.48
2017-12-04T07:38:23.568Z,82.42
2017-12-04T07:39:03.953Z,81.66
2017-12-04T07:39:50.750Z,81.56
2017-12-04T07:40:30.621Z,81.18
2017-12-04T07:41:10.966Z,81.43
2017-12-04T07:43:08.421Z,80.42
2017-12-04T07:43:48.904Z,80.99
2017-12-04T07:44:29.315Z,81.18
2017-12-04T07:45:09.717Z,81.09
2017-12-04T07:45:50.118Z,82.04
2017-12-04T07:46:31.238Z,81.37
2017-12-04T07:47:11.321Z,81.47
2017-12-04T07:47:51.910Z,81.76
2017-12-04T07:48:32.257Z,81.9
2017-12-04T07:49:12.929Z,81.71
2017-12-04T07:49:53.382Z,82.14
2017-12-04T07:52:12.503Z,82.42
2017-12-04T07:52:54.157Z,81.85
2017-12-04T07:53:34.876Z,81.85
2017-12-04T07:54:15.491Z,82.04
2017-12-04T07:54:55.950Z,80.8
2017-12-04T07:55:36.545Z,80.52
2017-12-04T07:56:17.171Z,80.52
2017-12-04T07:56:57.597Z,80.52
2017-12-04T07:57:37.994Z,80.9
2017-12-04T07:58:18.405Z,80.13
2017-12-04T08:00:31.724Z,80.61
2017-12-04T08:01:12.093Z,80.23
2017-12-04T08:01:52.497Z,80.13
2017-12-04T08:02:32.935Z,80.8
2017-12-04T08:03:13.321Z,80.9
2017-12-04T08:03:53.717Z,80.52
2017-12-04T08:04:34.090Z,80.13
2017-12-04T08:05:14.594Z,80.33
2017-12-04T08:05:54.954Z,80.99
2017-12-04T08:06:35.432Z,80.61
2017-12-04T08:07:15.861Z,80.52
2017-12-04T08:07:57.203Z,80.42
2017-12-04T08:08:37.424Z,80.71
2017-12-04T08:09:17.814Z,80.42
2017-12-04T08:09:58.231Z,80.42
2017-12-04T08:11:46.773Z,81.18
2017-12-04T08:12:27.009Z,80.61
2017-12-04T08:13:07.596Z,80.13
2017-12-04T08:13:48.034Z,80.71
2017-12-04T08:14:28.412Z,80.99
2017-12-04T08:15:08.795Z,80.94
2017-12-04T08:15:49.284Z,80.99
2017-12-04T08:16:29.597Z,80.42
2017-12-04T08:17:10.314Z,80.13
2017-12-04T08:17:50.455Z,80.9
2017-12-04T08:18:30.873Z,81.56
2017-12-04T08:19:11.273Z,82.14
2017-12-04T08:19:51.691Z,81.56
2017-12-04T08:20:32.142Z,81.28
2017-12-04T08:21:12.498Z,81.18
2017-12-04T08:21:52.878Z,80.99
2017-12-04T08:22:33.275Z,80.71
2017-12-04T08:23:13.699Z,81.03
2017-12-04T08:25:26.857Z,80.46
2017-12-04T08:26:07.523Z,80.18
2017-12-04T08:26:47.978Z,81.13
2017-12-04T08:27:28.424Z,80.27
2017-12-04T08:28:08.894Z,80.94
2017-12-04T08:28:49.259Z,80.94
2017-12-04T08:29:29.708Z,80.84
2017-12-04T08:30:10.114Z,80.55
2017-12-04T08:30:51.227Z,80.27
2017-12-04T08:31:34.667Z,79.51
2017-12-04T08:32:17.110Z,79.32
2017-12-04T08:32:59.311Z,79.89
2017-12-04T08:33:38.856Z,80.18
2017-12-04T08:34:19.231Z,79.89
2017-12-04T08:34:59.809Z,80.18
2017-12-04T08:37:23.009Z,80.18
2017-12-04T08:38:06.539Z,79.41
2017-12-04T08:38:46.916Z,79.03
2017-12-04T08:39:27.728Z,79.22
2017-12-04T08:40:08.154Z,79.6
2017-12-04T08:40:48.565Z,79.51
2017-12-04T08:41:29.033Z,79.41
2017-12-04T08:42:09.426Z,79.7
2017-12-04T08:42:49.822Z,80.27
2017-12-04T08:43:30.230Z,80.55
2017-12-04T08:44:10.628Z,79.99
2017-12-04T08:44:50.996Z,79.7
2017-12-04T08:45:31.417Z,80.08
2017-12-04T08:47:46.034Z,80.08
2017-12-04T08:48:26.750Z,79.99
2017-12-04T08:49:07.206Z,80.08
2017-12-04T08:49:47.625Z,80.36
2017-12-04T08:50:28.299Z,79.99
2017-12-04T08:51:09.542Z,79.51
2017-12-04T08:51:49.964Z,79.7
2017-12-04T08:52:30.329Z,79.22
2017-12-04T08:53:10.786Z,79.7
2017-12-04T08:53:51.148Z,79.41
2017-12-04T08:54:31.577Z,79.22
2017-12-04T08:55:12.008Z,79.22
2017-12-04T08:55:52.386Z,79.22
2017-12-04T08:56:32.806Z,79.03
2017-12-04T08:57:13.203Z,78.85
2017-12-04T09:00:26.629Z,79.22
2017-12-04T09:01:06.660Z,79.22
2017-12-04T09:01:47.829Z,78.85
2017-12-04T09:03:35.265Z,79.99
2017-12-04T09:04:15.593Z,80.65
2017-12-04T09:04:55.996Z,80.27
2017-12-04T09:05:36.392Z,79.8
2017-12-04T09:06:16.830Z,79.32
2017-12-04T09:06:57.251Z,79.41
2017-12-04T09:07:37.661Z,79.51
2017-12-04T09:08:18.243Z,79.51
2017-12-04T09:08:59.103Z,79.99
2017-12-04T09:09:39.473Z,80.27
2017-12-04T09:10:19.878Z,79.51
2017-12-04T09:11:00.294Z,79.22
2017-12-04T09:11:40.708Z,79.13
2017-12-04T09:12:21.174Z,79.99
2017-12-04T09:13:01.535Z,79.7
2017-12-04T09:13:41.986Z,79.41
2017-12-04T09:14:22.355Z,79.51
2017-12-04T09:15:02.782Z,79.7
2017-12-04T09:15:43.211Z,79.32
2017-12-04T09:16:23.693Z,79.99
2017-12-04T09:17:04.045Z,80.18
2017-12-04T09:17:44.578Z,80.08
2017-12-04T09:18:25.686Z,79.8
2017-12-04T09:19:05.750Z,79.8
2017-12-04T09:19:46.156Z,79.13
2017-12-04T09:20:26.581Z,79.22
2017-12-04T09:21:06.991Z,79.51
2017-12-04T09:21:47.540Z,79.27
2017-12-04T09:22:27.928Z,79.22
2017-12-04T09:23:08.323Z,79.03
2017-12-04T09:23:48.726Z,78.75
2017-12-04T09:24:29.127Z,79.22
2017-12-04T09:25:09.561Z,79.55
2017-12-04T09:25:49.980Z,79.46
2017-12-04T09:26:30.378Z,79.17
2017-12-04T09:27:10.800Z,78.22
2017-12-04T09:27:51.241Z,78.59
2017-12-04T09:28:31.686Z,80.31
2017-12-04T09:29:12.151Z,79.83
2017-12-04T09:29:52.529Z,79.27
2017-12-04T09:30:32.936Z,78.59
2017-12-04T09:31:13.325Z,78.59
2017-12-04T09:31:53.741Z,78.5
2017-12-04T09:32:34.118Z,78.5
2017-12-04T09:33:14.557Z,78.12
2017-12-04T09:33:54.946Z,78.41
2017-12-04T09:34:35.355Z,78.69
2017-12-04T09:40:41.487Z,78.59
2017-12-04T09:41:22.344Z,78.41
2017-12-04T09:42:03.054Z,79.27
2017-12-04T09:42:43.684Z,79.46
2017-12-04T09:43:24.582Z,79.74
2017-12-04T09:44:05.676Z,80.02
2017-12-04T09:44:47.044Z,80.31
2017-12-04T09:45:27.541Z,80.31
2017-12-04T09:46:07.476Z,80.02
2017-12-04T09:46:47.878Z,79.93
2017-12-04T09:47:28.288Z,80.02
2017-12-04T09:48:09.059Z,80.12
2017-12-04T09:48:49.449Z,80.98
2017-12-04T09:49:29.917Z,80.22
2017-12-04T09:50:10.296Z,80.5
2017-12-04T09:50:50.762Z,81.26
2017-12-04T09:51:31.295Z,81.46
2017-12-04T09:53:43.269Z,80.84
2017-12-04T09:58:03.493Z,80.69
2017-12-04T09:58:45.568Z,80.31
2017-12-04T09:59:26.478Z,80.22
2017-12-04T10:00:07.141Z,80.02
2017-12-04T10:00:47.976Z,80.5
2017-12-04T10:01:27.751Z,80.31
2017-12-04T10:02:08.368Z,79.83
2017-12-04T10:46:16.721Z,84.12
2017-12-04T10:48:39.208Z,84.6
2017-12-04T10:49:25.875Z,84.88
2017-12-04T10:50:05.485Z,84.69
2017-12-04T10:50:45.992Z,84.88
2017-12-04T10:51:26.420Z,84.69
2017-12-04T10:52:06.822Z,84.12
2017-12-04T10:52:47.277Z,84.98
2017-12-04T10:53:27.762Z,85.64
2017-12-04T10:54:08.131Z,84.98
2017-12-04T10:54:48.603Z,84.88
2017-12-04T10:55:28.989Z,84.69
2017-12-04T10:56:09.400Z,83.07
2017-12-04T10:56:50.733Z,83.84
2017-12-04T10:57:30.366Z,84.03
2017-12-04T10:58:10.792Z,83.93
2017-12-04T11:05:43.325Z,81.97
2017-12-04T11:06:24.974Z,81.4
2017-12-04T11:07:05.641Z,81.97
2017-12-04T11:07:47.597Z,82.17
2017-12-04T11:08:28.025Z,82.45
2017-12-04T11:09:09.803Z,82.17
2017-12-04T11:09:50.485Z,81.4
2017-12-04T11:10:31.230Z,81.88
2017-12-04T11:11:12.565Z,81.68
2017-12-04T11:11:53.685Z,81.4
2017-12-04T11:12:35.110Z,80.92
2017-12-04T11:13:14.806Z,81.02
2017-12-04T11:13:55.515Z,81.12
2017-12-04T11:14:36.346Z,81.02
2017-12-04T11:15:17.162Z,81.3
2017-12-04T11:16:00.477Z,81.4
2017-12-04T11:16:41.333Z,81.88
2017-12-04T11:17:23.058Z,82.54
2017-12-04T11:18:03.140Z,82.45
2017-12-04T11:18:43.519Z,82.17
2017-12-04T11:19:23.968Z,81.49
2017-12-04T11:20:04.353Z,81.3
2017-12-04T11:20:44.793Z,81.3
2017-12-04T11:21:25.234Z,82.17
2017-12-04T11:22:05.622Z,82.54
2017-12-04T11:22:46.012Z,82.64
2017-12-04T11:23:26.441Z,81.4
2017-12-04T11:24:06.816Z,81.59
2017-12-04T11:24:47.210Z,82.07
2017-12-04T11:26:34.657Z,81.4
2017-12-04T11:27:15.074Z,80.92
2017-12-04T11:27:55.544Z,82.26
2017-12-04T11:28:35.932Z,81.59
2017-12-04T11:29:16.352Z,80.92
2017-12-04T11:29:56.760Z,81.59
2017-12-04T11:30:37.196Z,80.64
2017-12-04T11:32:36.314Z,80.44
2017-12-04T11:33:17.450Z,80.64
2017-12-04T11:33:57.825Z,81.02
2017-12-04T11:34:38.252Z,81.12
2017-12-04T11:35:18.688Z,80.26